sensor_id;sensor_type;location;lat;lon;timestamp;pressure;altitude;pressure_sealevel;temperature;humidity
10464;BME280;5279;42.048;24.638;2023-05-23T00:02:24;97228.88;;;15.50;100.00
10464;BME280;5279;42.048;24.638;2023-05-23T00:04:53;97234.75;;;15.45;100.00
10464;BME280;5279;42.048;24.638;2023-05-23T00:07:25;97228.94;;;15.42;100.00
10464;BME280;5279;42.048;24.638;2023-05-23T00:09:52;97229.88;;;15.34;100.00
10464;BME280;5279;42.048;24.638;2023-05-23T00:12:21;97234.91;;;15.29;100.00
10464;BME280;5279;42.048;24.638;2023-05-23T00:14:48;97228.56;;;15.15;100.00
10464;BME280;5279;42.048;24.638;2023-05-23T00:17:18;97230.59;;;15.13;100.00
10464;BME280;5279;42.048;24.638;2023-05-23T00:19:46;97225.25;;;15.13;100.00
10464;BME280;5279;42.048;24.638;2023-05-23T00:22:14;97228.44;;;15.09;100.00
10464;BME280;5279;42.048;24.638;2023-05-23T00:24:43;97220.34;;;15.02;100.00
10464;BME280;5279;42.048;24.638;2023-05-23T00:27:11;97228.91;;;15.12;100.00
10464;BME280;5279;42.048;24.638;2023-05-23T00:29:39;97218.97;;;15.06;100.00
10464;BME280;5279;42.048;24.638;2023-05-23T00:32:06;97223.72;;;14.96;100.00
10464;BME280;5279;42.048;24.638;2023-05-23T00:34:33;97219.72;;;14.77;100.00
10464;BME280;5279;42.048;24.638;2023-05-23T00:37:01;97215.03;;;14.65;100.00
10464;BME280;5279;42.048;24.638;2023-05-23T00:39:29;97221.63;;;14.69;100.00
10464;BME280;5279;42.048;24.638;2023-05-23T00:42:03;97213.34;;;14.64;100.00
10464;BME280;5279;42.048;24.638;2023-05-23T00:44:31;97212.75;;;14.54;100.00
10464;BME280;5279;42.048;24.638;2023-05-23T00:47:00;97212.41;;;14.57;100.00
10464;BME280;5279;42.048;24.638;2023-05-23T00:49:29;97220.03;;;14.60;100.00
10464;BME280;5279;42.048;24.638;2023-05-23T00:51:57;97208.38;;;14.61;100.00
10464;BME280;5279;42.048;24.638;2023-05-23T00:54:27;97213.13;;;14.51;100.00
10464;BME280;5279;42.048;24.638;2023-05-23T00:56:58;97210.94;;;14.54;100.00
10464;BME280;5279;42.048;24.638;2023-05-23T00:59:25;97212.00;;;14.45;100.00
10464;BME280;5279;42.048;24.638;2023-05-23T01:01:54;97203.53;;;14.42;100.00
10464;BME280;5279;42.048;24.638;2023-05-23T01:04:22;97206.16;;;14.50;100.00
10464;BME280;5279;42.048;24.638;2023-05-23T01:06:52;97202.25;;;14.38;100.00
10464;BME280;5279;42.048;24.638;2023-05-23T01:09:20;97204.19;;;14.44;100.00
10464;BME280;5279;42.048;24.638;2023-05-23T01:11:57;97197.47;;;14.48;100.00
10464;BME280;5279;42.048;24.638;2023-05-23T01:14:32;97199.50;;;14.46;100.00
10464;BME280;5279;42.048;24.638;2023-05-23T01:17:06;97199.16;;;14.49;100.00
10464;BME280;5279;42.048;24.638;2023-05-23T01:19:50;97178.19;;;14.46;100.00
10464;BME280;5279;42.048;24.638;2023-05-23T01:22:26;97194.66;;;14.49;100.00
10464;BME280;5279;42.048;24.638;2023-05-23T01:25:06;97201.03;;;14.63;100.00
10464;BME280;5279;42.048;24.638;2023-05-23T01:27:51;97196.00;;;14.68;100.00
10464;BME280;5279;42.048;24.638;2023-05-23T01:30:20;97199.59;;;14.75;100.00
10464;BME280;5279;42.048;24.638;2023-05-23T01:32:53;97207.22;;;14.78;100.00
10464;BME280;5279;42.048;24.638;2023-05-23T01:35:24;97201.53;;;14.81;100.00
10464;BME280;5279;42.048;24.638;2023-05-23T01:37:52;97203.47;;;14.87;100.00
10464;BME280;5279;42.048;24.638;2023-05-23T01:40:20;97208.53;;;14.82;100.00
10464;BME280;5279;42.048;24.638;2023-05-23T01:42:49;97210.38;;;14.96;100.00
10464;BME280;5279;42.048;24.638;2023-05-23T01:45:17;97201.47;;;14.89;100.00
10464;BME280;5279;42.048;24.638;2023-05-23T01:47:46;97208.09;;;14.93;100.00
10464;BME280;5279;42.048;24.638;2023-05-23T01:50:16;97213.66;;;14.84;100.00
10464;BME280;5279;42.048;24.638;2023-05-23T01:52:45;97190.22;;;14.79;100.00
10464;BME280;5279;42.048;24.638;2023-05-23T01:55:15;97192.03;;;14.64;100.00
10464;BME280;5279;42.048;24.638;2023-05-23T01:57:50;97196.16;;;14.66;100.00
10464;BME280;5279;42.048;24.638;2023-05-23T02:00:20;97199.16;;;14.49;100.00
10464;BME280;5279;42.048;24.638;2023-05-23T02:02:48;97198.22;;;14.56;100.00
10464;BME280;5279;42.048;24.638;2023-05-23T02:05:16;97198.06;;;14.58;100.00
10464;BME280;5279;42.048;24.638;2023-05-23T02:07:46;97193.47;;;14.52;100.00
10464;BME280;5279;42.048;24.638;2023-05-23T02:10:14;97203.41;;;14.58;100.00
10464;BME280;5279;42.048;24.638;2023-05-23T02:12:44;97187.41;;;14.35;100.00
10464;BME280;5279;42.048;24.638;2023-05-23T02:15:13;97188.63;;;14.24;100.00
10464;BME280;5279;42.048;24.638;2023-05-23T02:17:42;97185.94;;;14.33;100.00
10464;BME280;5279;42.048;24.638;2023-05-23T02:20:10;97208.25;;;14.32;100.00
10464;BME280;5279;42.048;24.638;2023-05-23T02:22:37;97193.94;;;14.33;100.00
10464;BME280;5279;42.048;24.638;2023-05-23T02:25:06;97199.66;;;14.44;100.00
10464;BME280;5279;42.048;24.638;2023-05-23T02:27:34;97188.16;;;14.21;100.00
10464;BME280;5279;42.048;24.638;2023-05-23T02:30:10;97198.53;;;14.16;100.00
10464;BME280;5279;42.048;24.638;2023-05-23T02:32:39;97216.50;;;14.14;100.00
10464;BME280;5279;42.048;24.638;2023-05-23T02:35:07;97204.31;;;14.19;100.00
10464;BME280;5279;42.048;24.638;2023-05-23T02:37:38;97197.72;;;14.07;100.00
10464;BME280;5279;42.048;24.638;2023-05-23T02:40:07;97192.47;;;13.99;100.00
10464;BME280;5279;42.048;24.638;2023-05-23T02:42:36;97192.81;;;13.96;100.00
10464;BME280;5279;42.048;24.638;2023-05-23T02:45:04;97197.50;;;13.86;100.00
10464;BME280;5279;42.048;24.638;2023-05-23T02:47:32;97183.97;;;13.65;100.00
10464;BME280;5279;42.048;24.638;2023-05-23T02:50:02;97192.94;;;13.72;100.00
10464;BME280;5279;42.048;24.638;2023-05-23T02:52:29;97201.56;;;13.82;100.00
10464;BME280;5279;42.048;24.638;2023-05-23T02:54:57;97193.22;;;13.77;100.00
10464;BME280;5279;42.048;24.638;2023-05-23T02:57:24;97191.72;;;13.83;100.00
10464;BME280;5279;42.048;24.638;2023-05-23T02:59:52;97187.91;;;13.77;100.00
10464;BME280;5279;42.048;24.638;2023-05-23T03:02:21;97190.19;;;13.88;100.00
10464;BME280;5279;42.048;24.638;2023-05-23T03:04:49;97185.03;;;13.87;100.00
10464;BME280;5279;42.048;24.638;2023-05-23T03:07:18;97184.31;;;14.01;100.00
10464;BME280;5279;42.048;24.638;2023-05-23T03:09:47;97179.44;;;14.04;100.00
10464;BME280;5279;42.048;24.638;2023-05-23T03:12:14;97191.41;;;14.08;100.00
10464;BME280;5279;42.048;24.638;2023-05-23T03:14:41;97185.56;;;14.13;100.00
10464;BME280;5279;42.048;24.638;2023-05-23T03:17:12;97183.66;;;14.21;100.00
10464;BME280;5279;42.048;24.638;2023-05-23T03:19:40;97181.72;;;14.15;100.00
10464;BME280;5279;42.048;24.638;2023-05-23T03:22:07;97195.09;;;14.30;100.00
10464;BME280;5279;42.048;24.638;2023-05-23T03:24:36;97199.47;;;14.23;100.00
10464;BME280;5279;42.048;24.638;2023-05-23T03:27:04;97194.09;;;14.31;100.00
10464;BME280;5279;42.048;24.638;2023-05-23T03:29:31;97195.88;;;14.39;100.00
10464;BME280;5279;42.048;24.638;2023-05-23T03:31:58;97184.25;;;14.32;100.00
10464;BME280;5279;42.048;24.638;2023-05-23T03:34:25;97195.38;;;14.43;100.00
10464;BME280;5279;42.048;24.638;2023-05-23T03:36:53;97193.47;;;14.52;100.00
10464;BME280;5279;42.048;24.638;2023-05-23T03:39:20;97221.16;;;14.65;100.00
10464;BME280;5279;42.048;24.638;2023-05-23T03:41:50;97201.25;;;14.76;100.00
10464;BME280;5279;42.048;24.638;2023-05-23T03:44:18;97196.13;;;14.89;100.00
10464;BME280;5279;42.048;24.638;2023-05-23T03:46:46;97190.50;;;14.99;100.00
10464;BME280;5279;42.048;24.638;2023-05-23T03:49:13;97192.28;;;15.06;100.00
10464;BME280;5279;42.048;24.638;2023-05-23T03:51:40;97189.53;;;15.14;100.00
10464;BME280;5279;42.048;24.638;2023-05-23T03:57:30;97199.19;;;15.30;100.00
10464;BME280;5279;42.048;24.638;2023-05-23T03:59:58;97181.72;;;15.27;100.00
10464;BME280;5279;42.048;24.638;2023-05-23T04:02:26;97191.56;;;15.42;100.00
10464;BME280;5279;42.048;24.638;2023-05-23T04:04:53;97189.72;;;15.57;100.00
10464;BME280;5279;42.048;24.638;2023-05-23T04:07:24;97178.31;;;15.63;100.00
10464;BME280;5279;42.048;24.638;2023-05-23T04:09:52;97193.84;;;15.89;100.00
10464;BME280;5279;42.048;24.638;2023-05-23T04:12:19;97178.78;;;16.02;100.00
10464;BME280;5279;42.048;24.638;2023-05-23T04:14:48;97184.28;;;16.15;100.00
10464;BME280;5279;42.048;24.638;2023-05-23T04:17:15;97190.59;;;16.29;100.00
10464;BME280;5279;42.048;24.638;2023-05-23T04:19:42;97190.25;;;16.38;100.00
10464;BME280;5279;42.048;24.638;2023-05-23T04:22:09;97181.16;;;16.33;100.00
10464;BME280;5279;42.048;24.638;2023-05-23T04:24:36;97193.38;;;16.42;100.00
10464;BME280;5279;42.048;24.638;2023-05-23T04:27:04;97196.38;;;16.54;100.00
10464;BME280;5279;42.048;24.638;2023-05-23T04:29:32;97199.66;;;16.70;100.00
10464;BME280;5279;42.048;24.638;2023-05-23T04:32:01;97192.56;;;16.84;100.00
10464;BME280;5279;42.048;24.638;2023-05-23T04:34:28;97189.66;;;17.07;100.00
10464;BME280;5279;42.048;24.638;2023-05-23T04:36:58;97194.88;;;17.21;100.00
10464;BME280;5279;42.048;24.638;2023-05-23T04:39:26;97199.31;;;17.35;98.45
10464;BME280;5279;42.048;24.638;2023-05-23T04:41:54;97194.41;;;17.45;96.21
10464;BME280;5279;42.048;24.638;2023-05-23T04:44:21;97198.25;;;17.64;93.98
10464;BME280;5279;42.048;24.638;2023-05-23T04:46:48;97195.03;;;17.82;93.60
10464;BME280;5279;42.048;24.638;2023-05-23T04:49:16;97198.41;;;17.97;92.28
10464;BME280;5279;42.048;24.638;2023-05-23T04:51:45;97203.41;;;18.13;90.13
10464;BME280;5279;42.048;24.638;2023-05-23T04:54:13;97203.47;;;18.26;84.61
10464;BME280;5279;42.048;24.638;2023-05-23T04:56:41;97202.00;;;18.30;85.47
10464;BME280;5279;42.048;24.638;2023-05-23T04:59:12;97201.59;;;18.33;89.89
10464;BME280;5279;42.048;24.638;2023-05-23T05:01:40;97201.63;;;18.40;86.78
10464;BME280;5279;42.048;24.638;2023-05-23T05:04:09;97197.31;;;18.45;81.02
10464;BME280;5279;42.048;24.638;2023-05-23T05:06:39;97218.84;;;18.72;84.39
10464;BME280;5279;42.048;24.638;2023-05-23T05:09:07;97203.56;;;18.79;76.26
10464;BME280;5279;42.048;24.638;2023-05-23T05:11:34;97210.59;;;18.86;79.55
10464;BME280;5279;42.048;24.638;2023-05-23T05:14:01;97213.91;;;18.95;84.33
10464;BME280;5279;42.048;24.638;2023-05-23T05:16:28;97214.53;;;19.10;85.95
10464;BME280;5279;42.048;24.638;2023-05-23T05:18:55;97215.78;;;19.21;78.77
10464;BME280;5279;42.048;24.638;2023-05-23T05:21:21;97212.03;;;19.41;82.31
10464;BME280;5279;42.048;24.638;2023-05-23T05:23:50;97212.84;;;19.55;81.59
10464;BME280;5279;42.048;24.638;2023-05-23T05:26:17;97214.91;;;19.59;81.23
10464;BME280;5279;42.048;24.638;2023-05-23T05:28:44;97215.31;;;19.56;70.62
10464;BME280;5279;42.048;24.638;2023-05-23T05:31:10;97219.22;;;19.67;74.96
10464;BME280;5279;42.048;24.638;2023-05-23T05:33:39;97213.22;;;19.72;70.38
10464;BME280;5279;42.048;24.638;2023-05-23T05:36:10;97226.13;;;20.01;71.46
10464;BME280;5279;42.048;24.638;2023-05-23T05:38:37;97230.00;;;20.18;73.64
10464;BME280;5279;42.048;24.638;2023-05-23T05:41:05;97232.38;;;19.95;66.21
10464;BME280;5279;42.048;24.638;2023-05-23T05:43:32;97230.09;;;19.92;67.06
10464;BME280;5279;42.048;24.638;2023-05-23T05:45:59;97224.69;;;20.05;68.10
10464;BME280;5279;42.048;24.638;2023-05-23T05:48:26;97225.28;;;20.07;66.17
10464;BME280;5279;42.048;24.638;2023-05-23T05:50:52;97228.78;;;20.14;66.28
10464;BME280;5279;42.048;24.638;2023-05-23T05:53:19;97226.25;;;20.19;65.35
10464;BME280;5279;42.048;24.638;2023-05-23T05:55:46;97231.03;;;20.17;66.38
10464;BME280;5279;42.048;24.638;2023-05-23T05:58:14;97225.25;;;20.13;65.41
10464;BME280;5279;42.048;24.638;2023-05-23T06:00:41;97221.34;;;20.09;65.01
10464;BME280;5279;42.048;24.638;2023-05-23T06:03:08;97226.47;;;20.24;66.95
10464;BME280;5279;42.048;24.638;2023-05-23T06:05:35;97229.38;;;20.29;66.29
10464;BME280;5279;42.048;24.638;2023-05-23T06:08:04;97223.56;;;20.19;63.63
10464;BME280;5279;42.048;24.638;2023-05-23T06:10:31;97232.31;;;20.14;67.82
10464;BME280;5279;42.048;24.638;2023-05-23T06:12:58;97226.91;;;20.21;67.19
10464;BME280;5279;42.048;24.638;2023-05-23T06:15:26;97223.16;;;20.22;68.00
10464;BME280;5279;42.048;24.638;2023-05-23T06:17:53;97224.09;;;20.47;71.16
10464;BME280;5279;42.048;24.638;2023-05-23T06:20:20;97228.53;;;20.66;65.88
10464;BME280;5279;42.048;24.638;2023-05-23T06:22:47;97225.22;;;20.96;68.07
10464;BME280;5279;42.048;24.638;2023-05-23T06:25:14;97225.16;;;21.09;64.88
10464;BME280;5279;42.048;24.638;2023-05-23T06:27:41;97219.06;;;21.38;65.85
10464;BME280;5279;42.048;24.638;2023-05-23T06:30:10;97221.03;;;21.49;66.21
10464;BME280;5279;42.048;24.638;2023-05-23T06:32:39;97227.22;;;21.32;62.94
10464;BME280;5279;42.048;24.638;2023-05-23T06:35:07;97225.88;;;21.16;62.54
10464;BME280;5279;42.048;24.638;2023-05-23T06:37:34;97210.16;;;21.13;64.26
10464;BME280;5279;42.048;24.638;2023-05-23T06:40:01;97225.00;;;21.22;65.30
10464;BME280;5279;42.048;24.638;2023-05-23T06:42:28;97222.44;;;21.09;62.73
10464;BME280;5279;42.048;24.638;2023-05-23T06:44:54;97220.06;;;20.94;62.63
10464;BME280;5279;42.048;24.638;2023-05-23T06:47:21;97215.69;;;20.93;66.71
10464;BME280;5279;42.048;24.638;2023-05-23T06:49:50;97224.97;;;20.73;63.78
10464;BME280;5279;42.048;24.638;2023-05-23T06:52:17;97218.34;;;20.68;68.11
10464;BME280;5279;42.048;24.638;2023-05-23T06:54:43;97216.91;;;20.73;64.87
10464;BME280;5279;42.048;24.638;2023-05-23T06:57:10;97212.19;;;20.61;65.24
10464;BME280;5279;42.048;24.638;2023-05-23T06:59:37;97212.94;;;20.75;64.67
10464;BME280;5279;42.048;24.638;2023-05-23T07:02:04;97210.16;;;20.88;62.75
10464;BME280;5279;42.048;24.638;2023-05-23T07:04:31;97212.69;;;21.08;62.61
10464;BME280;5279;42.048;24.638;2023-05-23T07:06:59;97208.84;;;21.22;61.89
10464;BME280;5279;42.048;24.638;2023-05-23T07:09:26;97214.81;;;21.31;61.81
10464;BME280;5279;42.048;24.638;2023-05-23T07:11:53;97214.91;;;21.42;60.32
10464;BME280;5279;42.048;24.638;2023-05-23T07:14:20;97206.81;;;21.42;62.28
10464;BME280;5279;42.048;24.638;2023-05-23T07:16:47;97207.47;;;21.38;61.62
10464;BME280;5279;42.048;24.638;2023-05-23T07:19:14;97206.06;;;21.53;63.82
10464;BME280;5279;42.048;24.638;2023-05-23T07:21:41;97206.81;;;21.60;64.11
10464;BME280;5279;42.048;24.638;2023-05-23T07:24:09;97214.44;;;21.45;60.42
10464;BME280;5279;42.048;24.638;2023-05-23T07:26:36;97213.16;;;21.48;60.48
10464;BME280;5279;42.048;24.638;2023-05-23T07:29:03;97201.09;;;21.93;67.63
10464;BME280;5279;42.048;24.638;2023-05-23T07:31:30;97206.75;;;22.21;61.94
10464;BME280;5279;42.048;24.638;2023-05-23T07:33:57;97197.00;;;22.50;59.24
10464;BME280;5279;42.048;24.638;2023-05-23T07:36:24;97199.59;;;22.86;59.71
10464;BME280;5279;42.048;24.638;2023-05-23T07:38:51;97202.47;;;23.03;57.54
10464;BME280;5279;42.048;24.638;2023-05-23T07:41:20;97197.91;;;23.27;58.22
10464;BME280;5279;42.048;24.638;2023-05-23T07:43:47;97202.19;;;23.46;54.19
10464;BME280;5279;42.048;24.638;2023-05-23T07:46:14;97200.03;;;23.71;58.16
10464;BME280;5279;42.048;24.638;2023-05-23T07:48:41;97197.69;;;23.63;50.35
10464;BME280;5279;42.048;24.638;2023-05-23T07:51:08;97191.91;;;23.71;52.03
10464;BME280;5279;42.048;24.638;2023-05-23T07:53:35;97197.69;;;23.63;50.56
10464;BME280;5279;42.048;24.638;2023-05-23T07:56:04;97197.09;;;23.73;51.96
10464;BME280;5279;42.048;24.638;2023-05-23T07:58:33;97195.22;;;23.62;51.04
10464;BME280;5279;42.048;24.638;2023-05-23T08:01:00;97187.94;;;23.39;50.63
10464;BME280;5279;42.048;24.638;2023-05-23T08:03:28;97191.94;;;23.48;51.72
10464;BME280;5279;42.048;24.638;2023-05-23T08:05:54;97198.59;;;23.80;53.50
10464;BME280;5279;42.048;24.638;2023-05-23T08:08:21;97195.84;;;24.04;50.88
10464;BME280;5279;42.048;24.638;2023-05-23T08:10:48;97187.53;;;23.93;49.05
10464;BME280;5279;42.048;24.638;2023-05-23T08:13:15;97193.72;;;24.06;52.42
10464;BME280;5279;42.048;24.638;2023-05-23T08:15:44;97194.75;;;24.28;49.79
10464;BME280;5279;42.048;24.638;2023-05-23T08:18:11;97190.03;;;24.23;49.18
10464;BME280;5279;42.048;24.638;2023-05-23T08:20:38;97188.06;;;24.19;51.61
10464;BME280;5279;42.048;24.638;2023-05-23T08:23:05;97190.69;;;24.42;47.57
10464;BME280;5279;42.048;24.638;2023-05-23T08:25:32;97182.28;;;24.27;48.70
10464;BME280;5279;42.048;24.638;2023-05-23T08:28:00;97186.81;;;24.66;51.53
10464;BME280;5279;42.048;24.638;2023-05-23T08:30:27;97187.91;;;24.54;50.45
10464;BME280;5279;42.048;24.638;2023-05-23T08:32:56;97186.81;;;24.66;50.06
10464;BME280;5279;42.048;24.638;2023-05-23T08:35:22;97181.97;;;24.68;53.88
10464;BME280;5279;42.048;24.638;2023-05-23T08:37:50;97173.66;;;24.58;53.76
10464;BME280;5279;42.048;24.638;2023-05-23T08:40:18;97187.75;;;24.43;48.88
10464;BME280;5279;42.048;24.638;2023-05-23T08:42:46;97176.50;;;24.52;50.64
10464;BME280;5279;42.048;24.638;2023-05-23T08:45:13;97184.84;;;24.62;48.51
10464;BME280;5279;42.048;24.638;2023-05-23T08:47:41;97186.72;;;24.78;45.63
10464;BME280;5279;42.048;24.638;2023-05-23T08:50:12;97185.34;;;24.75;46.75
10464;BME280;5279;42.048;24.638;2023-05-23T08:52:43;97192.28;;;24.99;44.74
10464;BME280;5279;42.048;24.638;2023-05-23T08:55:12;97190.59;;;25.10;47.24
10464;BME280;5279;42.048;24.638;2023-05-23T08:57:39;97191.66;;;25.26;42.60
10464;BME280;5279;42.048;24.638;2023-05-23T09:00:09;97175.22;;;25.49;42.54
10464;BME280;5279;42.048;24.638;2023-05-23T09:02:39;97178.06;;;25.81;43.38
10464;BME280;5279;42.048;24.638;2023-05-23T09:05:07;97189.91;;;25.91;39.26
10464;BME280;5279;42.048;24.638;2023-05-23T09:07:36;97174.34;;;26.08;42.22
10464;BME280;5279;42.048;24.638;2023-05-23T09:10:05;97180.47;;;26.16;40.70
10464;BME280;5279;42.048;24.638;2023-05-23T09:12:32;97174.22;;;26.42;38.25
10464;BME280;5279;42.048;24.638;2023-05-23T09:15:01;97172.69;;;26.51;38.37
10464;BME280;5279;42.048;24.638;2023-05-23T09:17:30;97160.66;;;26.42;40.82
10464;BME280;5279;42.048;24.638;2023-05-23T09:19:57;97171.44;;;26.32;40.72
10464;BME280;5279;42.048;24.638;2023-05-23T09:22:24;97165.22;;;26.36;43.35
10464;BME280;5279;42.048;24.638;2023-05-23T09:24:54;97172.81;;;26.61;43.09
10464;BME280;5279;42.048;24.638;2023-05-23T09:27:21;97178.81;;;26.63;39.42
10464;BME280;5279;42.048;24.638;2023-05-23T09:29:49;97171.41;;;26.53;40.24
10464;BME280;5279;42.048;24.638;2023-05-23T09:32:17;97174.34;;;26.52;41.92
10464;BME280;5279;42.048;24.638;2023-05-23T09:34:54;97177.22;;;26.67;38.57
10464;BME280;5279;42.048;24.638;2023-05-23T09:37:24;97171.06;;;26.77;42.25
10464;BME280;5279;42.048;24.638;2023-05-23T09:39:57;97170.38;;;26.86;40.91
10464;BME280;5279;42.048;24.638;2023-05-23T09:42:24;97171.44;;;27.17;39.86
10464;BME280;5279;42.048;24.638;2023-05-23T09:44:57;97168.03;;;27.32;40.03
10464;BME280;5279;42.048;24.638;2023-05-23T09:47:24;97161.75;;;27.68;40.31
10464;BME280;5279;42.048;24.638;2023-05-23T09:49:51;97164.88;;;27.97;37.08
10464;BME280;5279;42.048;24.638;2023-05-23T09:52:18;97172.34;;;28.11;36.28
10464;BME280;5279;42.048;24.638;2023-05-23T09:54:46;97166.13;;;28.31;35.32
10464;BME280;5279;42.048;24.638;2023-05-23T09:57:15;97162.19;;;28.69;34.74
10464;BME280;5279;42.048;24.638;2023-05-23T09:59:50;97160.53;;;28.88;35.46
10464;BME280;5279;42.048;24.638;2023-05-23T10:02:31;97159.47;;;28.84;32.89
10464;BME280;5279;42.048;24.638;2023-05-23T10:05:09;97158.31;;;28.60;32.22
10464;BME280;5279;42.048;24.638;2023-05-23T10:07:41;97164.78;;;28.29;31.59
10464;BME280;5279;42.048;24.638;2023-05-23T10:10:10;97153.50;;;28.05;32.16
10464;BME280;5279;42.048;24.638;2023-05-23T10:12:46;97161.47;;;28.21;31.94
10464;BME280;5279;42.048;24.638;2023-05-23T10:15:15;97167.16;;;28.15;32.29
10464;BME280;5279;42.048;24.638;2023-05-23T10:18:05;97160.78;;;27.94;33.51
10464;BME280;5279;42.048;24.638;2023-05-23T10:20:35;97159.31;;;28.24;34.67
10464;BME280;5279;42.048;24.638;2023-05-23T10:23:05;97160.47;;;28.53;32.21
10464;BME280;5279;42.048;24.638;2023-05-23T10:25:32;97156.19;;;28.92;32.05
10464;BME280;5279;42.048;24.638;2023-05-23T10:28:03;97156.19;;;29.12;31.56
10464;BME280;5279;42.048;24.638;2023-05-23T10:30:31;97155.09;;;29.18;32.21
10464;BME280;5279;42.048;24.638;2023-05-23T10:32:58;97151.28;;;29.09;31.76
10464;BME280;5279;42.048;24.638;2023-05-23T10:35:37;97157.81;;;29.13;33.40
10464;BME280;5279;42.048;24.638;2023-05-23T10:38:15;97154.56;;;29.01;31.90
10464;BME280;5279;42.048;24.638;2023-05-23T10:40:51;97153.94;;;28.64;32.19
10464;BME280;5279;42.048;24.638;2023-05-23T10:43:25;97149.31;;;28.59;32.32
10464;BME280;5279;42.048;24.638;2023-05-23T10:45:54;97153.31;;;28.27;33.22
10464;BME280;5279;42.048;24.638;2023-05-23T10:48:22;97149.25;;;28.29;34.50
10464;BME280;5279;42.048;24.638;2023-05-23T10:51:02;97156.34;;;28.35;33.55
10464;BME280;5279;42.048;24.638;2023-05-23T10:53:30;97155.53;;;28.35;36.05
10464;BME280;5279;42.048;24.638;2023-05-23T10:55:57;97150.66;;;28.52;34.69
10464;BME280;5279;42.048;24.638;2023-05-23T10:58:28;97154.53;;;28.71;34.70
10464;BME280;5279;42.048;24.638;2023-05-23T11:00:59;97148.81;;;28.98;33.57
10464;BME280;5279;42.048;24.638;2023-05-23T11:03:31;97150.75;;;29.02;32.90
10464;BME280;5279;42.048;24.638;2023-05-23T11:06:00;97156.19;;;29.48;33.34
10464;BME280;5279;42.048;24.638;2023-05-23T11:08:35;97142.19;;;29.85;33.99
10464;BME280;5279;42.048;24.638;2023-05-23T11:11:03;97142.94;;;30.05;32.11
10464;BME280;5279;42.048;24.638;2023-05-23T11:13:54;97142.34;;;30.13;31.33
10464;BME280;5279;42.048;24.638;2023-05-23T11:16:25;97142.91;;;30.15;33.28
10464;BME280;5279;42.048;24.638;2023-05-23T11:19:20;97155.31;;;29.88;33.72
10464;BME280;5279;42.048;24.638;2023-05-23T11:21:52;97145.72;;;29.90;34.14
10464;BME280;5279;42.048;24.638;2023-05-23T11:24:19;97150.66;;;29.83;32.51
10464;BME280;5279;42.048;24.638;2023-05-23T11:26:54;97147.94;;;29.78;31.83
10464;BME280;5279;42.048;24.638;2023-05-23T11:29:26;97153.38;;;29.78;32.16
10464;BME280;5279;42.048;24.638;2023-05-23T11:31:54;97150.69;;;29.73;32.89
10464;BME280;5279;42.048;24.638;2023-05-23T11:34:21;97151.19;;;29.80;32.03
10464;BME280;5279;42.048;24.638;2023-05-23T11:36:52;97149.84;;;29.72;30.99
10464;BME280;5279;42.048;24.638;2023-05-23T11:39:19;97149.91;;;29.57;34.01
10464;BME280;5279;42.048;24.638;2023-05-23T11:41:57;97148.47;;;29.75;34.18
10464;BME280;5279;42.048;24.638;2023-05-23T11:44:25;97145.19;;;29.93;33.41
10464;BME280;5279;42.048;24.638;2023-05-23T11:46:59;97138.34;;;29.80;35.05
10464;BME280;5279;42.048;24.638;2023-05-23T11:49:28;97149.56;;;29.79;33.51
10464;BME280;5279;42.048;24.638;2023-05-23T11:51:55;97143.50;;;30.02;35.13
10464;BME280;5279;42.048;24.638;2023-05-23T11:54:22;97144.91;;;29.79;32.65
10464;BME280;5279;42.048;24.638;2023-05-23T11:56:49;97130.44;;;29.94;33.57
10464;BME280;5279;42.048;24.638;2023-05-23T11:59:16;97126.06;;;29.88;33.58
10464;BME280;5279;42.048;24.638;2023-05-23T12:01:45;97135.94;;;29.64;32.55
10464;BME280;5279;42.048;24.638;2023-05-23T12:04:11;97137.56;;;29.75;33.42
10464;BME280;5279;42.048;24.638;2023-05-23T12:06:39;97136.47;;;29.76;32.69
10464;BME280;5279;42.048;24.638;2023-05-23T12:09:07;97129.63;;;29.73;31.36
10464;BME280;5279;42.048;24.638;2023-05-23T12:11:34;97117.34;;;29.76;32.80
10464;BME280;5279;42.048;24.638;2023-05-23T12:14:01;97117.88;;;29.78;32.00
10464;BME280;5279;42.048;24.638;2023-05-23T12:16:31;97116.84;;;29.49;34.74
10464;BME280;5279;42.048;24.638;2023-05-23T12:19:01;97114.72;;;29.20;36.53
10464;BME280;5279;42.048;24.638;2023-05-23T12:21:39;97117.19;;;28.82;36.72
10464;BME280;5279;42.048;24.638;2023-05-23T12:24:16;97107.03;;;28.62;38.21
10464;BME280;5279;42.048;24.638;2023-05-23T12:26:50;97085.09;;;27.96;39.14
10464;BME280;5279;42.048;24.638;2023-05-23T12:29:19;97106.88;;;28.01;36.79
10464;BME280;5279;42.048;24.638;2023-05-23T12:31:50;97092.56;;;28.26;36.82
10464;BME280;5279;42.048;24.638;2023-05-23T12:34:19;97089.03;;;28.36;37.76
10464;BME280;5279;42.048;24.638;2023-05-23T12:36:46;97090.72;;;28.77;36.54
10464;BME280;5279;42.048;24.638;2023-05-23T12:39:14;97098.88;;;29.17;36.02
10464;BME280;5279;42.048;24.638;2023-05-23T12:41:41;97098.59;;;29.44;35.26
10464;BME280;5279;42.048;24.638;2023-05-23T12:44:10;97096.63;;;29.55;35.29
10464;BME280;5279;42.048;24.638;2023-05-23T12:46:40;97092.69;;;29.96;34.30
10464;BME280;5279;42.048;24.638;2023-05-23T12:49:08;97087.75;;;30.03;34.97
10464;BME280;5279;42.048;24.638;2023-05-23T12:51:36;97095.03;;;29.54;33.99
10464;BME280;5279;42.048;24.638;2023-05-23T12:54:03;97086.28;;;29.47;35.22
10464;BME280;5279;42.048;24.638;2023-05-23T12:56:57;97088.97;;;29.62;34.88
10464;BME280;5279;42.048;24.638;2023-05-23T12:59:24;97088.22;;;29.41;35.22
10464;BME280;5279;42.048;24.638;2023-05-23T13:01:53;97083.06;;;29.35;34.61
10464;BME280;5279;42.048;24.638;2023-05-23T13:04:20;97091.28;;;28.99;35.17
10464;BME280;5279;42.048;24.638;2023-05-23T13:06:48;97086.34;;;29.06;35.81
10464;BME280;5279;42.048;24.638;2023-05-23T13:09:15;97078.16;;;29.26;38.80
10464;BME280;5279;42.048;24.638;2023-05-23T13:11:42;97068.34;;;29.05;34.54